Time;durP1;ratioP1;P1;durP2;ratioP2;P2;SDS_P1;SDS_P2;PMS_P1;PMS_P2;Temp;Humidity;BMP_temperature;BMP_pressure;BME280_temperature;BME280_humidity;BME280_pressure;Samples;Min_cycle;Max_cycle;Signal;HPM_P1;HPM_P2
2022/09/20 00:00:06;;;;;;;1.65;0.70;;;;;;;;;;4973448;28;20053;-83
2022/09/20 00:02:31;;;;;;;1.63;0.60;;;;;;;;;;4979374;28;20044;-81
2022/09/20 00:04:57;;;;;;;2.75;0.70;;;;;;;;;;4988950;28;20765;-83
2022/09/20 00:07:22;;;;;;;3.05;0.77;;;;;;;;;;4969838;28;20033;-83
2022/09/20 00:09:48;;;;;;;2.22;0.70;;;;;;;;;;4976976;28;20096;-82
2022/09/20 00:12:13;;;;;;;2.45;0.70;;;;;;;;;;4964184;28;20379;-82
2022/09/20 00:14:38;;;;;;;2.78;0.93;;;;;;;;;;4984759;28;20038;-82
2022/09/20 00:17:04;;;;;;;3.35;0.73;;;;;;;;;;4967332;28;20034;-81
2022/09/20 00:19:29;;;;;;;1.58;0.70;;;;;;;;;;4956519;28;20062;-81
2022/09/20 00:21:57;;;;;;;3.00;0.80;;;;;;;;;;4969176;28;20034;-83
2022/09/20 00:24:24;;;;;;;1.95;0.70;;;;;;;;;;4976217;28;20034;-82
2022/09/20 00:26:50;;;;;;;3.28;0.90;;;;;;;;;;4963777;28;20387;-81
2022/09/20 00:29:16;;;;;;;2.25;0.85;;;;;;;;;;4973150;28;20396;-82
2022/09/20 00:31:41;;;;;;;2.30;0.70;;;;;;;;;;4963769;28;20109;-82
2022/09/20 00:36:52;;;;;;;1.77;0.70;;;;;;;;;;4984518;28;20101;-82
2022/09/20 00:39:17;;;;;;;2.40;0.80;;;;;;;;;;4970594;28;20042;-81
2022/09/20 00:41:42;;;;;;;2.58;0.80;;;;;;;;;;4987242;28;20041;-82
2022/09/20 00:44:56;;;;;;;2.25;0.68;;;;;;;;;;4968403;28;20069;-83
2022/09/20 00:47:27;;;;;;;1.95;0.80;;;;;;;;;;4962166;28;20030;-82
2022/09/20 00:49:58;;;;;;;7.68;0.93;;;;;;;;;;4995511;28;20033;-81
2022/09/20 00:52:25;;;;;;;2.22;0.80;;;;;;;;;;4972173;28;20064;-82
2022/09/20 00:54:51;;;;;;;2.55;0.70;;;;;;;;;;4991996;28;20038;-82
2022/09/20 00:57:17;;;;;;;1.98;0.75;;;;;;;;;;4969777;28;20031;-83
2022/09/20 00:59:45;;;;;;;1.70;0.60;;;;;;;;;;4962508;28;20528;-82
2022/09/20 01:02:17;;;;;;;1.60;0.63;;;;;;;;;;4972258;28;20120;-81
2022/09/20 01:04:43;;;;;;;1.25;0.60;;;;;;;;;;4980324;28;20042;-82
2022/09/20 01:07:11;;;;;;;3.03;0.70;;;;;;;;;;4962636;28;20034;-82
2022/09/20 01:09:36;;;;;;;3.13;0.82;;;;;;;;;;4977241;28;20486;-82
2022/09/20 01:12:04;;;;;;;3.10;0.85;;;;;;;;;;4967903;28;20052;-83
2022/09/20 01:14:30;;;;;;;3.33;0.90;;;;;;;;;;4957423;28;20034;-82
2022/09/20 01:16:57;;;;;;;2.63;0.60;;;;;;;;;;4972921;28;20044;-83
2022/09/20 01:19:34;;;;;;;3.13;0.90;;;;;;;;;;4965817;28;20045;-82
2022/09/20 01:22:04;;;;;;;2.03;0.80;;;;;;;;;;4999382;28;20498;-82
2022/09/20 01:24:32;;;;;;;1.85;0.68;;;;;;;;;;4973637;28;20039;-85
2022/09/20 01:27:01;;;;;;;1.40;0.70;;;;;;;;;;4980822;28;20485;-82
2022/09/20 01:29:42;;;;;;;1.52;0.70;;;;;;;;;;4967823;28;20042;-82
2022/09/20 01:32:12;;;;;;;2.13;0.75;;;;;;;;;;4963193;28;20038;-82
2022/09/20 01:34:44;;;;;;;2.00;0.70;;;;;;;;;;4956730;28;20104;-82
2022/09/20 01:37:18;;;;;;;1.60;0.68;;;;;;;;;;4972454;28;20608;-83
2022/09/20 01:39:49;;;;;;;1.70;0.70;;;;;;;;;;4995678;28;20096;-82
2022/09/20 01:42:15;;;;;;;2.63;0.70;;;;;;;;;;4981781;28;20049;-82
2022/09/20 01:45:22;;;;;;;2.00;0.77;;;;;;;;;;4992841;28;20497;-83
2022/09/20 01:48:25;;;;;;;2.72;0.60;;;;;;;;;;4875007;29;20100;-82
2022/09/20 01:51:10;;;;;;;2.00;0.63;;;;;;;;;;4890809;29;20032;-82
2022/09/20 01:53:59;;;;;;;1.65;0.70;;;;;;;;;;4889749;29;20511;-82
2022/09/20 01:56:51;;;;;;;1.83;0.70;;;;;;;;;;4890584;29;20041;-82
2022/09/20 01:59:38;;;;;;;2.33;0.70;;;;;;;;;;4884015;29;20056;-82
2022/09/20 02:02:06;;;;;;;1.53;0.60;;;;;;;;;;4889742;29;20474;-83
2022/09/20 02:04:55;;;;;;;2.67;0.70;;;;;;;;;;4890208;29;20068;-84
2022/09/20 02:07:51;;;;;;;3.33;0.70;;;;;;;;;;4887651;29;20037;-82
2022/09/20 02:10:38;;;;;;;2.25;0.80;;;;;;;;;;4894369;29;20059;-82
2022/09/20 02:13:08;;;;;;;1.88;0.93;;;;;;;;;;4908998;29;20523;-82
2022/09/20 02:16:14;;;;;;;2.10;0.70;;;;;;;;;;4908188;29;20047;-83
2022/09/20 02:19:06;;;;;;;1.88;0.70;;;;;;;;;;4948108;28;20569;-82
2022/09/20 02:22:01;;;;;;;2.25;0.82;;;;;;;;;;4948296;28;20688;-82
2022/09/20 02:25:04;;;;;;;2.78;0.95;;;;;;;;;;4965975;28;20068;-83
2022/09/20 02:27:41;;;;;;;1.27;0.60;;;;;;;;;;4971240;28;20464;-84
2022/09/20 02:30:45;;;;;;;2.83;0.95;;;;;;;;;;4946972;28;20038;-82
2022/09/20 02:33:23;;;;;;;1.88;0.77;;;;;;;;;;4962624;28;20038;-82
2022/09/20 02:35:54;;;;;;;1.10;0.50;;;;;;;;;;4954422;28;20030;-84
2022/09/20 02:38:34;;;;;;;2.38;0.80;;;;;;;;;;4987004;28;20181;-82
2022/09/20 02:41:18;;;;;;;2.25;0.80;;;;;;;;;;4983835;28;20039;-83
2022/09/20 02:44:09;;;;;;;2.10;0.70;;;;;;;;;;4987450;28;20034;-82
2022/09/20 02:46:34;;;;;;;1.50;0.80;;;;;;;;;;4969135;28;20038;-82
2022/09/20 02:49:24;;;;;;;1.65;0.90;;;;;;;;;;4971782;28;20035;-83
2022/09/20 02:51:57;;;;;;;2.45;0.70;;;;;;;;;;4985273;28;20074;-84
2022/09/20 02:55:11;;;;;;;2.63;0.77;;;;;;;;;;4954607;28;20105;-82
2022/09/20 02:57:54;;;;;;;2.83;0.80;;;;;;;;;;4924742;28;20505;-83
2022/09/20 03:00:25;;;;;;;1.70;0.70;;;;;;;;;;4982502;28;20042;-82
2022/09/20 03:03:04;;;;;;;2.13;0.88;;;;;;;;;;4954095;28;20034;-83
2022/09/20 03:05:45;;;;;;;2.15;1.00;;;;;;;;;;4951219;28;20043;-83
2022/09/20 03:08:17;;;;;;;2.47;0.90;;;;;;;;;;4956096;28;20057;-82
2022/09/20 03:10:54;;;;;;;2.17;0.65;;;;;;;;;;4960816;28;20030;-83
2022/09/20 03:13:53;;;;;;;2.33;0.90;;;;;;;;;;4969463;28;20132;-82
2022/09/20 03:16:27;;;;;;;1.70;0.75;;;;;;;;;;4959144;28;20048;-82
2022/09/20 03:19:32;;;;;;;2.25;0.93;;;;;;;;;;4969604;28;20046;-82
2022/09/20 03:22:33;;;;;;;2.20;0.65;;;;;;;;;;4949710;28;20513;-82
2022/09/20 03:25:16;;;;;;;3.33;0.90;;;;;;;;;;4927401;29;20048;-83
2022/09/20 03:28:09;;;;;;;1.73;0.90;;;;;;;;;;4982698;28;20100;-82
2022/09/20 03:30:34;;;;;;;2.30;0.77;;;;;;;;;;4959775;28;20049;-83
2022/09/20 03:33:15;;;;;;;3.55;0.90;;;;;;;;;;4969448;28;20406;-82
2022/09/20 03:36:21;;;;;;;2.50;1.13;;;;;;;;;;4956055;28;20041;-83
2022/09/20 03:38:52;;;;;;;1.95;0.65;;;;;;;;;;4936571;28;20507;-83
2022/09/20 03:41:24;;;;;;;2.00;1.10;;;;;;;;;;4970236;28;20069;-83
2022/09/20 03:44:04;;;;;;;1.67;0.70;;;;;;;;;;4969359;28;20034;-85
2022/09/20 03:46:44;;;;;;;2.40;0.77;;;;;;;;;;4944848;28;20057;-84
2022/09/20 03:49:55;;;;;;;2.17;0.80;;;;;;;;;;4952367;28;20054;-82
2022/09/20 03:52:51;;;;;;;1.30;0.52;;;;;;;;;;4939263;28;20213;-82
2022/09/20 03:55:38;;;;;;;2.70;0.80;;;;;;;;;;4970322;28;20112;-82
2022/09/20 03:58:45;;;;;;;3.42;0.85;;;;;;;;;;4972621;28;20064;-83
2022/09/20 04:01:14;;;;;;;1.63;0.70;;;;;;;;;;4943404;28;20073;-86
2022/09/20 04:04:17;;;;;;;3.53;0.90;;;;;;;;;;4979952;28;20035;-83
2022/09/20 04:06:55;;;;;;;2.80;0.90;;;;;;;;;;4980795;28;20044;-84
2022/09/20 04:09:50;;;;;;;2.92;0.95;;;;;;;;;;4978832;28;20529;-84
2022/09/20 04:13:09;;;;;;;2.38;0.90;;;;;;;;;;4975539;28;20045;-83
2022/09/20 04:15:51;;;;;;;1.88;0.90;;;;;;;;;;4914586;28;20039;-81
2022/09/20 04:18:46;;;;;;;2.47;0.90;;;;;;;;;;4905813;29;20099;-81
2022/09/20 04:21:27;;;;;;;3.33;1.10;;;;;;;;;;4935382;28;20043;-81
2022/09/20 04:24:12;;;;;;;2.58;0.80;;;;;;;;;;4930074;29;20088;-80
2022/09/20 04:26:44;;;;;;;1.73;0.73;;;;;;;;;;4929228;29;20046;-80
2022/09/20 04:29:39;;;;;;;3.22;0.95;;;;;;;;;;4947510;28;20487;-80
2022/09/20 04:32:36;;;;;;;3.47;0.90;;;;;;;;;;4944860;28;20039;-87
2022/09/20 04:37:55;;;;;;;2.55;0.90;;;;;;;;;;4932495;28;20134;-87
2022/09/20 04:40:39;;;;;;;2.47;0.70;;;;;;;;;;4914379;29;20043;-86
2022/09/20 04:43:10;;;;;;;1.50;0.70;;;;;;;;;;4932549;29;20133;-86
2022/09/20 04:45:36;;;;;;;2.25;0.70;;;;;;;;;;4932515;28;20037;-85
2022/09/20 04:48:25;;;;;;;3.53;1.00;;;;;;;;;;4999374;28;20054;-85
2022/09/20 04:51:11;;;;;;;3.45;1.10;;;;;;;;;;4984606;28;20494;-86
2022/09/20 04:54:00;;;;;;;3.05;0.80;;;;;;;;;;4985032;28;20099;-86
2022/09/20 04:56:31;;;;;;;3.75;0.75;;;;;;;;;;4953945;28;20119;-86
2022/09/20 04:59:09;;;;;;;2.60;1.13;;;;;;;;;;4985838;28;20040;-86
2022/09/20 05:01:54;;;;;;;4.35;1.20;;;;;;;;;;4973104;28;20034;-85
2022/09/20 05:05:15;;;;;;;2.33;0.88;;;;;;;;;;4988886;28;20092;-85
2022/09/20 05:07:49;;;;;;;4.07;1.08;;;;;;;;;;4916615;28;20056;-87
2022/09/20 05:10:33;;;;;;;2.17;0.98;;;;;;;;;;4966084;28;20041;-86
2022/09/20 05:13:53;;;;;;;2.58;1.20;;;;;;;;;;4953888;28;20040;-88
2022/09/20 05:16:56;;;;;;;1.80;0.80;;;;;;;;;;4957060;28;20048;-87
2022/09/20 05:19:34;;;;;;;3.50;1.08;;;;;;;;;;4963830;28;20034;-86
2022/09/20 05:22:12;;;;;;;2.38;0.95;;;;;;;;;;4977464;28;20041;-86
2022/09/20 05:24:54;;;;;;;3.15;1.17;;;;;;;;;;4983292;28;20530;-84
2022/09/20 05:27:59;;;;;;;3.30;0.90;;;;;;;;;;4961752;28;20053;-89
2022/09/20 05:30:44;;;;;;;2.92;0.90;;;;;;;;;;4942722;28;21024;-90
2022/09/20 05:33:37;;;;;;;2.28;1.02;;;;;;;;;;4941768;28;20496;-88
2022/09/20 05:36:27;;;;;;;2.75;0.90;;;;;;;;;;4971741;28;20034;-89
2022/09/20 05:39:00;;;;;;;3.53;0.90;;;;;;;;;;4961017;28;20057;-89
2022/09/20 05:41:46;;;;;;;3.10;1.10;;;;;;;;;;4964716;28;20034;-89
2022/09/20 05:44:20;;;;;;;2.20;0.80;;;;;;;;;;4956197;28;20077;-89
2022/09/20 05:47:04;;;;;;;3.00;1.08;;;;;;;;;;4973694;28;20494;-89
2022/09/20 05:49:38;;;;;;;2.53;1.13;;;;;;;;;;4977740;28;20570;-90
2022/09/20 05:52:10;;;;;;;3.92;1.17;;;;;;;;;;4987559;28;20038;-89
2022/09/20 05:55:09;;;;;;;14.07;2.13;;;;;;;;;;4966618;28;20580;-84
2022/09/20 05:57:40;;;;;;;4.68;1.58;;;;;;;;;;4969700;28;20070;-83
2022/09/20 06:00:29;;;;;;;13.48;2.90;;;;;;;;;;4959202;28;20042;-84
2022/09/20 06:03:07;;;;;;;8.20;2.53;;;;;;;;;;4946096;28;20030;-83
2022/09/20 06:06:03;;;;;;;9.73;2.40;;;;;;;;;;4956016;28;20034;-84
2022/09/20 06:08:55;;;;;;;7.35;2.05;;;;;;;;;;4975387;28;20489;-84
2022/09/20 06:11:45;;;;;;;2.90;0.90;;;;;;;;;;4959796;28;20514;-83
2022/09/20 06:14:44;;;;;;;1.55;0.70;;;;;;;;;;4964516;28;20525;-83
2022/09/20 06:17:23;;;;;;;2.42;0.98;;;;;;;;;;4968830;28;20042;-83
2022/09/20 06:20:25;;;;;;;2.67;0.80;;;;;;;;;;4954754;28;20050;-84
2022/09/20 06:22:54;;;;;;;2.55;0.80;;;;;;;;;;4990267;28;20482;-84
2022/09/20 06:25:41;;;;;;;1.92;0.57;;;;;;;;;;4959162;28;20508;-83
2022/09/20 06:28:06;;;;;;;;;;;;;;;;;;4971197;28;20498;-84
2022/09/20 06:30:35;;;;;;;2.27;0.70;;;;;;;;;;4960173;28;19985;-84
2022/09/20 06:33:21;;;;;;;2.13;0.70;;;;;;;;;;4928548;28;20030;-85
2022/09/20 06:35:53;;;;;;;1.65;0.70;;;;;;;;;;4976614;28;20118;-82
2022/09/20 06:41:27;;;;;;;4.63;1.33;;;;;;;;;;4972237;28;20045;-83
2022/09/20 06:43:57;;;;;;;1.63;0.70;;;;;;;;;;4959213;28;20026;-84
2022/09/20 06:46:24;;;;;;;2.58;0.80;;;;;;;;;;4957040;28;20035;-83
2022/09/20 06:48:50;;;;;;;2.03;0.90;;;;;;;;;;4971658;28;22397;-84
2022/09/20 06:51:15;;;;;;;1.67;0.63;;;;;;;;;;4970320;28;20774;-83
2022/09/20 06:53:41;;;;;;;3.40;1.00;;;;;;;;;;4955471;28;20038;-83
2022/09/20 06:56:07;;;;;;;2.45;0.90;;;;;;;;;;4953492;28;20041;-83
2022/09/20 06:58:32;;;;;;;3.33;1.00;;;;;;;;;;4969369;28;20077;-84
2022/09/20 07:00:58;;;;;;;2.42;0.80;;;;;;;;;;4969461;28;20043;-83
2022/09/20 07:03:23;;;;;;;3.58;1.23;;;;;;;;;;4953657;28;20541;-84
2022/09/20 07:05:49;;;;;;;2.10;0.70;;;;;;;;;;4959554;28;20065;-84
2022/09/20 07:08:15;;;;;;;2.03;0.80;;;;;;;;;;4988887;28;20038;-84
2022/09/20 07:10:42;;;;;;;1.80;0.77;;;;;;;;;;4978309;28;20037;-83
2022/09/20 07:13:10;;;;;;;1.65;0.70;;;;;;;;;;4972998;28;20556;-83
2022/09/20 07:15:36;;;;;;;2.38;0.90;;;;;;;;;;4971641;28;20584;-84
2022/09/20 07:18:02;;;;;;;5.57;0.90;;;;;;;;;;4986597;28;20066;-84
2022/09/20 07:20:27;;;;;;;2.33;0.90;;;;;;;;;;4971651;28;20034;-84
2022/09/20 07:22:52;;;;;;;2.30;1.00;;;;;;;;;;4972446;28;20045;-84
2022/09/20 07:25:19;;;;;;;1.95;0.88;;;;;;;;;;4962753;28;20037;-84
2022/09/20 07:27:45;;;;;;;3.50;1.20;;;;;;;;;;4972677;28;20397;-84
2022/09/20 07:30:12;;;;;;;2.30;1.00;;;;;;;;;;4972347;28;20046;-84
2022/09/20 07:32:39;;;;;;;3.90;1.15;;;;;;;;;;4971345;28;20038;-84
2022/09/20 07:35:09;;;;;;;2.85;1.08;;;;;;;;;;4977548;28;20177;-84
2022/09/20 07:37:35;;;;;;;2.70;1.10;;;;;;;;;;4972416;28;20485;-84
2022/09/20 07:40:02;;;;;;;2.88;1.30;;;;;;;;;;4988781;28;20034;-84
2022/09/20 07:42:28;;;;;;;3.22;1.20;;;;;;;;;;4974868;28;20056;-84
2022/09/20 07:44:54;;;;;;;2.78;1.00;;;;;;;;;;4973739;28;20065;-84
2022/09/20 07:47:20;;;;;;;2.83;1.23;;;;;;;;;;4971573;28;20175;-84
2022/09/20 07:49:46;;;;;;;3.40;1.50;;;;;;;;;;4975243;28;20909;-85
2022/09/20 07:52:13;;;;;;;3.25;1.50;;;;;;;;;;4987474;28;20038;-83
2022/09/20 07:54:38;;;;;;;3.25;1.40;;;;;;;;;;4974750;28;20493;-84
2022/09/20 07:57:04;;;;;;;4.15;1.40;;;;;;;;;;4972122;28;20044;-84
2022/09/20 07:59:30;;;;;;;4.10;1.50;;;;;;;;;;4972691;28;20062;-85
2022/09/20 08:01:57;;;;;;;3.10;1.35;;;;;;;;;;4969318;28;20540;-85
2022/09/20 08:04:23;;;;;;;3.60;1.40;;;;;;;;;;4977291;28;20044;-85
2022/09/20 08:06:48;;;;;;;5.03;1.65;;;;;;;;;;4985306;28;20037;-85
2022/09/20 08:09:13;;;;;;;2.92;1.50;;;;;;;;;;4972770;28;20030;-85
2022/09/20 08:11:40;;;;;;;3.90;1.45;;;;;;;;;;4972330;28;20030;-84
2022/09/20 08:14:09;;;;;;;2.75;1.35;;;;;;;;;;4971688;28;20516;-84
2022/09/20 08:16:42;;;;;;;3.33;1.30;;;;;;;;;;4987027;28;20069;-84
2022/09/20 08:19:08;;;;;;;2.40;1.20;;;;;;;;;;4972904;28;20529;-84
2022/09/20 08:21:36;;;;;;;3.72;1.58;;;;;;;;;;4977375;28;20061;-85
2022/09/20 08:24:02;;;;;;;4.70;1.48;;;;;;;;;;4970736;28;20056;-82
2022/09/20 08:26:29;;;;;;;2.90;1.10;;;;;;;;;;4988203;28;20088;-84
2022/09/20 08:28:56;;;;;;;3.63;1.00;;;;;;;;;;4988478;28;20668;-85
2022/09/20 08:31:24;;;;;;;3.50;1.00;;;;;;;;;;4986572;28;20513;-85
2022/09/20 08:33:50;;;;;;;;;;;;;;;;;;4987836;28;20292;-84
2022/09/20 08:36:17;;;;;;;4.57;1.63;;;;;;;;;;4988090;28;19913;-85
2022/09/20 08:38:43;;;;;;;2.95;1.20;;;;;;;;;;4970011;28;20371;-84
2022/09/20 08:41:15;;;;;;;3.75;1.40;;;;;;;;;;4972320;28;20107;-85
2022/09/20 08:43:47;;;;;;;3.55;1.30;;;;;;;;;;4986635;28;20030;-85
2022/09/20 08:46:14;;;;;;;2.33;1.10;;;;;;;;;;4983722;28;20468;-84
2022/09/20 08:48:40;;;;;;;3.53;1.20;;;;;;;;;;4967470;28;20046;-85
2022/09/20 08:51:09;;;;;;;3.47;1.10;;;;;;;;;;4970843;28;20038;-85
2022/09/20 08:53:35;;;;;;;3.17;1.30;;;;;;;;;;4978406;28;20038;-83
2022/09/20 08:56:00;;;;;;;2.47;0.90;;;;;;;;;;4977678;28;20053;-85
2022/09/20 08:58:29;;;;;;;3.75;1.00;;;;;;;;;;4976886;28;20124;-85
2022/09/20 09:00:57;;;;;;;2.53;0.80;;;;;;;;;;4988175;28;20069;-85
2022/09/20 09:03:24;;;;;;;2.20;0.90;;;;;;;;;;4988372;28;20054;-85
2022/09/20 09:05:54;;;;;;;3.20;1.00;;;;;;;;;;4966348;28;20046;-85
2022/09/20 09:08:33;;;;;;;3.05;1.00;;;;;;;;;;4956021;28;20034;-85
2022/09/20 09:11:12;;;;;;;3.08;0.80;;;;;;;;;;4954933;28;20113;-85
2022/09/20 09:13:53;;;;;;;2.58;0.80;;;;;;;;;;4969919;28;20065;-85
2022/09/20 09:16:23;;;;;;;2.22;0.68;;;;;;;;;;4972618;28;20038;-85
2022/09/20 09:19:08;;;;;;;2.65;0.80;;;;;;;;;;4954532;28;20118;-85
2022/09/20 09:21:34;;;;;;;3.25;0.80;;;;;;;;;;4894110;29;20032;-84
2022/09/20 09:24:08;;;;;;;2.75;0.90;;;;;;;;;;4881917;29;20534;-84
2022/09/20 09:26:36;;;;;;;3.38;0.85;;;;;;;;;;4893936;29;20567;-85
2022/09/20 09:29:22;;;;;;;2.00;0.85;;;;;;;;;;4880936;29;20147;-84
2022/09/20 09:31:50;;;;;;;2.75;0.90;;;;;;;;;;4878318;29;20503;-85
2022/09/20 09:34:30;;;;;;;3.42;1.23;;;;;;;;;;4879203;29;20580;-84
2022/09/20 09:36:56;;;;;;;3.38;1.10;;;;;;;;;;4895393;29;20044;-84
2022/09/20 09:39:28;;;;;;;5.28;1.30;;;;;;;;;;4877540;29;20040;-84
2022/09/20 09:41:54;;;;;;;3.70;1.08;;;;;;;;;;4897161;29;20516;-84
2022/09/20 09:44:26;;;;;;;4.22;1.20;;;;;;;;;;4895649;29;20048;-85
2022/09/20 09:46:55;;;;;;;3.17;1.40;;;;;;;;;;4893832;29;20055;-84
2022/09/20 09:49:25;;;;;;;3.70;1.40;;;;;;;;;;4891557;29;20044;-84
2022/09/20 09:52:11;;;;;;;3.38;1.50;;;;;;;;;;4869780;29;20051;-84
2022/09/20 09:54:39;;;;;;;2.95;1.17;;;;;;;;;;4883936;29;20491;-82
2022/09/20 09:57:10;;;;;;;2.40;1.20;;;;;;;;;;4880252;29;20898;-82
2022/09/20 09:59:42;;;;;;;2.95;1.40;;;;;;;;;;4968899;28;20065;-83
2022/09/20 10:02:13;;;;;;;3.20;1.20;;;;;;;;;;4978765;28;20047;-82
2022/09/20 10:05:02;;;;;;;4.10;1.40;;;;;;;;;;4961605;28;20481;-86
2022/09/20 10:07:36;;;;;;;3.25;1.42;;;;;;;;;;4957989;28;20043;-85
2022/09/20 10:10:33;;;;;;;4.03;1.48;;;;;;;;;;4979756;28;20880;-84
2022/09/20 10:12:58;;;;;;;4.78;1.50;;;;;;;;;;4995763;28;20077;-84
2022/09/20 10:16:00;;;;;;;3.05;1.20;;;;;;;;;;4991830;28;20038;-86
2022/09/20 10:18:50;;;;;;;3.97;1.67;;;;;;;;;;4964058;28;20056;-85
2022/09/20 10:21:37;;;;;;;6.70;1.80;;;;;;;;;;4993169;28;20037;-87
2022/09/20 10:24:09;;;;;;;2.55;1.30;;;;;;;;;;4972067;28;20046;-85
2022/09/20 10:26:50;;;;;;;2.70;1.17;;;;;;;;;;4972731;28;20568;-85
2022/09/20 10:29:34;;;;;;;3.20;1.35;;;;;;;;;;4968708;28;20502;-84
2022/09/20 10:31:59;;;;;;;3.97;1.77;;;;;;;;;;4970780;28;20039;-84
2022/09/20 10:34:59;;;;;;;3.13;1.42;;;;;;;;;;4975080;28;20040;-85
2022/09/20 10:37:51;;;;;;;4.00;1.63;;;;;;;;;;4974979;28;20058;-83
2022/09/20 10:43:13;;;;;;;2.95;1.50;;;;;;;;;;4956257;28;20047;-83
2022/09/20 10:43:25;;;;;;;2.67;1.20;;;;;;;;;;4991959;28;20133;-84
2022/09/20 10:46:22;;;;;;;3.42;1.30;;;;;;;;;;4970387;28;20105;-84
2022/09/20 10:48:54;;;;;;;3.03;1.20;;;;;;;;;;4976914;28;20050;-85
2022/09/20 10:51:31;;;;;;;2.30;1.00;;;;;;;;;;4964060;28;20048;-84
2022/09/20 10:54:19;;;;;;;3.03;1.20;;;;;;;;;;4975913;28;20038;-83
2022/09/20 10:57:09;;;;;;;4.15;1.80;;;;;;;;;;4972594;28;20121;-83
2022/09/20 10:59:50;;;;;;;2.78;1.10;;;;;;;;;;4956157;28;20077;-83
2022/09/20 11:02:35;;;;;;;2.47;1.17;;;;;;;;;;4980024;28;20042;-83
2022/09/20 11:05:13;;;;;;;3.92;1.42;;;;;;;;;;4961794;28;20490;-83
2022/09/20 11:08:00;;;;;;;2.10;1.00;;;;;;;;;;4970979;28;20037;-84
2022/09/20 11:10:34;;;;;;;3.28;1.35;;;;;;;;;;4972734;28;20040;-84
2022/09/20 11:13:04;;;;;;;3.63;1.25;;;;;;;;;;4979718;28;20035;-84
2022/09/20 11:15:42;;;;;;;2.83;1.20;;;;;;;;;;4974629;28;20299;-84
2022/09/20 11:18:13;;;;;;;3.40;1.10;;;;;;;;;;4987334;28;20034;-84
2022/09/20 11:20:43;;;;;;;4.25;1.50;;;;;;;;;;4983555;28;20046;-84
2022/09/20 11:23:19;;;;;;;3.30;1.17;;;;;;;;;;4972336;28;20038;-84
2022/09/20 11:26:11;;;;;;;2.63;1.00;;;;;;;;;;4972528;28;20061;-84
2022/09/20 11:28:40;;;;;;;4.38;1.52;;;;;;;;;;4969523;28;20042;-85
2022/09/20 11:31:30;;;;;;;3.85;1.10;;;;;;;;;;4959505;28;20038;-84
2022/09/20 11:34:07;;;;;;;2.97;0.85;;;;;;;;;;4957119;28;20184;-84
2022/09/20 11:36:56;;;;;;;4.53;1.47;;;;;;;;;;4963528;28;20030;-83
2022/09/20 11:39:38;;;;;;;3.05;1.23;;;;;;;;;;4974635;28;20494;-83
2022/09/20 11:42:04;;;;;;;3.63;1.30;;;;;;;;;;4957744;28;20666;-85
2022/09/20 11:44:40;;;;;;;2.72;0.95;;;;;;;;;;4960686;28;20038;-86
2022/09/20 11:47:20;;;;;;;5.75;1.50;;;;;;;;;;4957766;28;20037;-85
2022/09/20 11:50:15;;;;;;;3.28;1.35;;;;;;;;;;4989677;28;20034;-86
2022/09/20 11:53:02;;;;;;;4.85;1.55;;;;;;;;;;4975103;28;20069;-86
2022/09/20 11:55:41;;;;;;;3.60;1.83;;;;;;;;;;4971155;28;20551;-86
2022/09/20 11:58:15;;;;;;;5.10;1.55;;;;;;;;;;4958449;28;20044;-85
2022/09/20 12:00:44;;;;;;;2.50;1.38;;;;;;;;;;4957977;28;20041;-84
2022/09/20 12:03:28;;;;;;;4.25;1.90;;;;;;;;;;4961359;28;20521;-85
2022/09/20 12:05:59;;;;;;;4.97;1.75;;;;;;;;;;4993583;28;20050;-84
2022/09/20 12:08:54;;;;;;;4.75;1.90;;;;;;;;;;4974118;28;20041;-84
2022/09/20 12:11:51;;;;;;;3.50;1.70;;;;;;;;;;4975870;28;20042;-85
2022/09/20 12:14:19;;;;;;;3.10;1.33;;;;;;;;;;4964408;28;20089;-85
2022/09/20 12:16:46;;;;;;;3.05;1.40;;;;;;;;;;4972056;28;20618;-86
2022/09/20 12:19:31;;;;;;;4.43;1.85;;;;;;;;;;4989767;28;20042;-87
2022/09/20 12:21:59;;;;;;;4.00;1.63;;;;;;;;;;4977426;28;20516;-87
2022/09/20 12:24:35;;;;;;;3.33;1.70;;;;;;;;;;4977946;28;20556;-84
2022/09/20 12:27:20;;;;;;;4.88;1.75;;;;;;;;;;4972688;28;20073;-85
2022/09/20 12:29:46;;;;;;;4.55;1.70;;;;;;;;;;4973150;28;20034;-84
2022/09/20 12:32:33;;;;;;;4.35;1.80;;;;;;;;;;4996259;28;20034;-84
2022/09/20 12:34:59;;;;;;;3.22;1.80;;;;;;;;;;4975308;28;20141;-85
2022/09/20 12:37:24;;;;;;;5.05;1.92;;;;;;;;;;4978020;28;20177;-86
2022/09/20 12:39:52;;;;;;;3.90;1.65;;;;;;;;;;4991101;28;20038;-85
2022/09/20 12:42:17;;;;;;;4.53;1.98;;;;;;;;;;4964333;28;20587;-85
2022/09/20 12:45:15;;;;;;;4.00;1.70;;;;;;;;;;4990665;28;20038;-85
2022/09/20 12:47:52;;;;;;;2.78;1.45;;;;;;;;;;4953708;28;20571;-86
2022/09/20 12:53:11;;;;;;;2.38;1.15;;;;;;;;;;4994464;28;20499;-84
2022/09/20 12:55:55;;;;;;;2.63;0.90;;;;;;;;;;4989213;28;20034;-85
2022/09/20 12:58:39;;;;;;;3.55;1.23;;;;;;;;;;5008006;28;20445;-82
2022/09/20 13:01:04;;;;;;;2.45;0.98;;;;;;;;;;4992496;28;20400;-82
2022/09/20 13:03:35;;;;;;;2.83;1.30;;;;;;;;;;4993928;28;20038;-80
2022/09/20 13:06:04;;;;;;;2.60;1.10;;;;;;;;;;4981140;28;20096;-81
2022/09/20 13:08:50;;;;;;;2.53;1.08;;;;;;;;;;4978551;28;20037;-81
2022/09/20 13:11:27;;;;;;;2.20;0.90;;;;;;;;;;4979615;28;20061;-81
2022/09/20 13:13:57;;;;;;;2.28;0.60;;;;;;;;;;4986526;28;20044;-82
2022/09/20 13:16:29;;;;;;;1.40;0.60;;;;;;;;;;4972391;28;20038;-82
2022/09/20 13:19:04;;;;;;;2.97;0.90;;;;;;;;;;4976613;28;20108;-82
2022/09/20 13:21:31;;;;;;;1.67;0.70;;;;;;;;;;4970025;28;20034;-81
2022/09/20 13:23:58;;;;;;;2.20;0.77;;;;;;;;;;4978814;28;20026;-82
2022/09/20 13:26:28;;;;;;;3.90;1.27;;;;;;;;;;4986235;28;20033;-80
2022/09/20 13:28:57;;;;;;;1.85;0.77;;;;;;;;;;4978632;28;20041;-80
2022/09/20 13:31:24;;;;;;;2.80;1.35;;;;;;;;;;4990411;28;20120;-80
2022/09/20 13:33:50;;;;;;;1.50;0.50;;;;;;;;;;4990807;28;20034;-81
2022/09/20 13:36:23;;;;;;;1.73;0.50;;;;;;;;;;4991444;28;20034;-81
2022/09/20 13:38:49;;;;;;;1.02;0.40;;;;;;;;;;4978655;28;20552;-83
2022/09/20 13:41:15;;;;;;;1.92;0.60;;;;;;;;;;4995719;28;20041;-81
2022/09/20 13:43:45;;;;;;;1.77;0.75;;;;;;;;;;4969632;28;20040;-81
2022/09/20 13:46:17;;;;;;;1.65;0.68;;;;;;;;;;4991257;28;20385;-81
2022/09/20 13:48:47;;;;;;;1.30;0.40;;;;;;;;;;4992118;28;20034;-81
2022/09/20 13:51:19;;;;;;;2.15;0.52;;;;;;;;;;4977791;28;20088;-82
2022/09/20 13:53:46;;;;;;;1.20;0.47;;;;;;;;;;5009600;28;20394;-82
2022/09/20 13:56:22;;;;;;;1.08;0.47;;;;;;;;;;4977436;28;20030;-81
2022/09/20 13:58:49;;;;;;;0.88;0.40;;;;;;;;;;4981434;28;20044;-82
2022/09/20 14:01:30;;;;;;;1.03;0.40;;;;;;;;;;5002883;28;20041;-82
2022/09/20 14:04:17;;;;;;;1.02;0.40;;;;;;;;;;4993521;28;20100;-82
2022/09/20 14:06:44;;;;;;;0.77;0.40;;;;;;;;;;4975269;28;20064;-82
2022/09/20 14:09:19;;;;;;;0.88;0.40;;;;;;;;;;4981683;28;20564;-83
2022/09/20 14:11:45;;;;;;;1.55;0.40;;;;;;;;;;4966080;28;20033;-84
2022/09/20 14:14:11;;;;;;;1.35;0.40;;;;;;;;;;4977610;28;20567;-85
2022/09/20 14:16:39;;;;;;;1.05;0.38;;;;;;;;;;4960446;28;20038;-83
2022/09/20 14:19:07;;;;;;;0.70;0.40;;;;;;;;;;4975463;28;20034;-83
2022/09/20 14:21:34;;;;;;;1.75;0.40;;;;;;;;;;4969663;28;20060;-84
2022/09/20 14:24:05;;;;;;;3.00;0.50;;;;;;;;;;4995949;28;20088;-83
2022/09/20 14:26:39;;;;;;;1.55;0.50;;;;;;;;;;4983674;28;20040;-82
2022/09/20 14:29:41;;;;;;;0.95;0.38;;;;;;;;;;4973610;28;20042;-84
2022/09/20 14:32:13;;;;;;;1.83;0.60;;;;;;;;;;4985845;28;20042;-82
2022/09/20 14:34:39;;;;;;;1.08;0.40;;;;;;;;;;5004816;28;20041;-81
2022/09/20 14:37:11;;;;;;;0.82;0.38;;;;;;;;;;4992252;28;20048;-82
2022/09/20 14:39:53;;;;;;;1.05;0.35;;;;;;;;;;4967977;28;20058;-83
2022/09/20 14:42:46;;;;;;;0.63;0.30;;;;;;;;;;4975970;28;20519;-82
2022/09/20 14:45:29;;;;;;;0.90;0.40;;;;;;;;;;4953648;28;20374;-82
2022/09/20 14:47:57;;;;;;;0.82;0.40;;;;;;;;;;5007190;28;20501;-80
2022/09/20 14:50:32;;;;;;;0.88;0.30;;;;;;;;;;4994539;28;20512;-84
2022/09/20 14:53:05;;;;;;;1.02;0.40;;;;;;;;;;4981659;28;20065;-82
2022/09/20 14:55:34;;;;;;;1.23;0.35;;;;;;;;;;4977629;28;20034;-81
2022/09/20 14:58:04;;;;;;;1.50;0.40;;;;;;;;;;5010999;28;20034;-81
2022/09/20 15:01:05;;;;;;;0.85;0.32;;;;;;;;;;4975797;28;20030;-82
2022/09/20 15:03:31;;;;;;;1.33;0.45;;;;;;;;;;4981605;28;20301;-81
2022/09/20 15:06:00;;;;;;;1.42;0.40;;;;;;;;;;4983786;28;20046;-83
2022/09/20 15:08:26;;;;;;;1.23;0.40;;;;;;;;;;4978056;28;20040;-81
2022/09/20 15:10:52;;;;;;;0.60;0.30;;;;;;;;;;4987629;28;20046;-82
2022/09/20 15:13:18;;;;;;;0.63;0.20;;;;;;;;;;4970687;28;20440;-81
2022/09/20 15:15:48;;;;;;;0.65;0.25;;;;;;;;;;4979278;28;20128;-80
2022/09/20 15:18:19;;;;;;;0.93;0.40;;;;;;;;;;4977377;28;20084;-77
2022/09/20 15:20:45;;;;;;;0.73;0.30;;;;;;;;;;4985040;28;20065;-78
2022/09/20 15:23:10;;;;;;;0.75;0.30;;;;;;;;;;4993508;28;20045;-76
2022/09/20 15:25:35;;;;;;;0.85;0.20;;;;;;;;;;4994581;28;20038;-78
2022/09/20 15:28:01;;;;;;;1.50;0.30;;;;;;;;;;4994159;28;20107;-78
2022/09/20 15:30:29;;;;;;;1.02;0.40;;;;;;;;;;4969595;28;20040;-78
2022/09/20 15:32:54;;;;;;;1.05;0.38;;;;;;;;;;4977572;28;20036;-78
2022/09/20 15:35:20;;;;;;;1.67;0.60;;;;;;;;;;4994448;28;20116;-78
2022/09/20 15:37:45;;;;;;;1.00;0.38;;;;;;;;;;4978693;28;20432;-78
2022/09/20 15:40:11;;;;;;;1.02;0.40;;;;;;;;;;4978699;28;20497;-78
2022/09/20 15:42:37;;;;;;;1.38;0.38;;;;;;;;;;4979099;28;20088;-78
2022/09/20 15:45:08;;;;;;;0.93;0.30;;;;;;;;;;4995235;28;20038;-78
2022/09/20 15:47:37;;;;;;;1.08;0.25;;;;;;;;;;4994134;28;20169;-77